Time;durP1;ratioP1;P1;durP2;ratioP2;P2;SDS_P1;SDS_P2;PMS_P1;PMS_P2;Temp;Humidity;BMP_temperature;BMP_pressure;BME280_temperature;BME280_humidity;BME280_pressure;Samples;Min_cycle;Max_cycle;Signal;HPM_P1;HPM_P2
2023/10/20 00:01:47;;;;;;;4.25;2.10;;;;;;;19.92;57.55;98472.88;4999074;28;20034;-64
2023/10/20 00:04:12;;;;;;;5.20;2.70;;;;;;;19.92;57.53;98474.72;4999178;28;20469;-66
2023/10/20 00:06:39;;;;;;;4.82;2.47;;;;;;;19.90;57.35;98477.56;4998760;28;20295;-66
2023/10/20 00:09:06;;;;;;;4.90;2.17;;;;;;;19.91;57.64;98468.59;4998695;28;20033;-64
2023/10/20 00:11:32;;;;;;;4.80;2.38;;;;;;;19.91;57.46;98465.94;4999364;28;20049;-65
2023/10/20 00:13:57;;;;;;;4.45;2.30;;;;;;;19.90;57.69;98464.34;4999042;28;20467;-66
2023/10/20 00:16:26;;;;;;;4.43;2.33;;;;;;;19.89;57.55;98448.66;4998673;28;20486;-65
2023/10/20 00:18:51;;;;;;;4.93;2.63;;;;;;;19.90;57.46;98445.00;4998417;28;20494;-60
2023/10/20 00:21:16;;;;;;;4.15;2.17;;;;;;;19.90;57.58;98442.34;4998615;28;20034;-64
2023/10/20 00:23:42;;;;;;;4.03;2.28;;;;;;;19.90;57.46;98439.72;4998690;28;20030;-66
2023/10/20 00:26:07;;;;;;;4.90;2.50;;;;;;;19.91;57.62;98438.72;4998026;28;20474;-67
2023/10/20 00:28:32;;;;;;;4.38;2.20;;;;;;;19.90;57.61;98434.41;4998353;28;20264;-65
2023/10/20 00:30:58;;;;;;;4.50;2.20;;;;;;;19.88;57.60;98424.03;4998980;28;20121;-66
2023/10/20 00:33:23;;;;;;;5.03;2.50;;;;;;;19.88;57.48;98417.94;4998688;28;20092;-64
2023/10/20 00:35:48;;;;;;;3.92;2.20;;;;;;;19.89;57.46;98416.94;4996954;28;20077;-64
2023/10/20 00:38:13;;;;;;;4.50;2.17;;;;;;;19.89;57.63;98393.16;4998610;28;20033;-63
2023/10/20 00:40:48;;;;;;;4.72;2.45;;;;;;;19.87;57.51;98382.78;4996225;28;20030;-66
2023/10/20 00:43:14;;;;;;;5.20;2.33;;;;;;;19.88;57.40;98378.31;4998637;28;20041;-65
2023/10/20 00:45:43;;;;;;;4.70;2.10;;;;;;;19.87;57.62;98376.69;4988783;28;20037;-63
2023/10/20 00:48:08;;;;;;;4.40;2.20;;;;;;;19.86;57.40;98370.56;4998120;28;20036;-66
2023/10/20 00:50:34;;;;;;;4.07;2.30;;;;;;;19.86;57.38;98367.13;4997263;28;20034;-65
2023/10/20 00:53:01;;;;;;;4.63;2.35;;;;;;;19.86;57.43;98367.91;4996772;28;20034;-62
2023/10/20 00:55:26;;;;;;;4.72;2.10;;;;;;;19.87;57.31;98360.84;4998110;28;20085;-66
2023/10/20 00:57:53;;;;;;;5.40;2.30;;;;;;;19.87;57.61;98358.19;4998321;28;20034;-68
2023/10/20 01:00:20;;;;;;;4.22;2.08;;;;;;;19.86;57.42;98359.19;4998321;28;20034;-65
2023/10/20 01:02:46;;;;;;;5.07;2.40;;;;;;;19.84;57.54;98346.16;4997705;28;20026;-69
2023/10/20 01:05:14;;;;;;;5.10;2.38;;;;;;;19.86;57.62;98343.34;4997320;28;20088;-67
2023/10/20 01:07:40;;;;;;;5.15;2.50;;;;;;;19.85;57.66;98342.53;4997293;28;20034;-63
2023/10/20 01:10:06;;;;;;;6.38;2.00;;;;;;;19.85;57.22;98342.53;4997655;28;20042;-66
2023/10/20 01:12:32;;;;;;;4.75;2.33;;;;;;;19.83;57.51;98331.31;4997674;28;20033;-67
2023/10/20 01:14:59;;;;;;;4.40;2.38;;;;;;;19.84;57.53;98325.03;4997888;28;20037;-64
2023/10/20 01:17:26;;;;;;;5.10;2.47;;;;;;;19.83;57.44;98323.38;4997753;28;20041;-63
2023/10/20 01:19:52;;;;;;;4.60;2.60;;;;;;;19.83;57.43;98312.81;4997071;28;20097;-64
2023/10/20 01:22:17;;;;;;;4.63;2.35;;;;;;;19.83;57.52;98309.38;4997720;28;20038;-65
2023/10/20 01:24:42;;;;;;;5.05;2.25;;;;;;;19.83;57.49;98304.88;4997758;28;20032;-62
2023/10/20 01:27:08;;;;;;;5.15;2.72;;;;;;;19.82;57.56;98303.28;4997673;28;20069;-67
2023/10/20 01:29:33;;;;;;;5.45;2.35;;;;;;;19.84;57.41;98300.44;4987505;28;20425;-63
2023/10/20 01:31:59;;;;;;;5.28;2.50;;;;;;;19.81;57.47;98293.69;4997805;28;20042;-65
2023/10/20 01:34:24;;;;;;;4.05;2.40;;;;;;;19.81;57.70;98285.78;4997023;28;20034;-64
2023/10/20 01:36:49;;;;;;;4.43;2.58;;;;;;;19.83;57.41;98288.22;4996861;28;20061;-66
2023/10/20 01:39:15;;;;;;;5.57;2.58;;;;;;;19.82;57.43;98295.34;4997455;28;20026;-66
2023/10/20 01:41:41;;;;;;;4.40;2.50;;;;;;;19.83;57.34;98301.44;4996258;28;20084;-64
2023/10/20 01:44:08;;;;;;;5.03;2.60;;;;;;;19.81;57.52;98299.00;4997125;28;20446;-68
2023/10/20 01:46:34;;;;;;;4.82;2.30;;;;;;;19.81;57.57;98285.78;4996749;28;20398;-64
2023/10/20 01:48:59;;;;;;;4.72;2.45;;;;;;;19.82;57.51;98270.72;4997083;28;20026;-64
2023/10/20 01:51:24;;;;;;;4.85;2.63;;;;;;;19.82;57.46;98273.38;4997234;28;20034;-66
2023/10/20 01:53:50;;;;;;;4.90;2.53;;;;;;;19.81;57.43;98279.69;4997153;28;20042;-69
2023/10/20 01:56:15;;;;;;;5.15;2.65;;;;;;;19.81;57.43;98275.19;4996474;28;20521;-62
2023/10/20 01:58:41;;;;;;;5.50;2.60;;;;;;;19.79;57.58;98264.03;4997673;28;20034;-65
2023/10/20 02:01:08;;;;;;;4.60;2.65;;;;;;;19.80;57.55;98259.53;4997190;28;20037;-64
2023/10/20 02:03:33;;;;;;;4.03;2.28;;;;;;;19.81;57.38;98247.97;4997017;28;20038;-65
2023/10/20 02:05:59;;;;;;;4.68;2.33;;;;;;;19.79;57.37;98239.41;4996395;28;20501;-63
2023/10/20 02:08:24;;;;;;;4.95;2.47;;;;;;;19.78;57.48;98235.16;4996854;28;20038;-65
2023/10/20 02:10:49;;;;;;;5.22;2.80;;;;;;;19.78;57.47;98228.03;4997078;28;20030;-68
2023/10/20 02:13:15;;;;;;;4.40;2.58;;;;;;;19.80;57.47;98233.13;4996724;28;20038;-62
2023/10/20 02:15:47;;;;;;;5.00;2.33;;;;;;;19.78;57.43;98232.50;4996825;28;20037;-69
2023/10/20 02:18:13;;;;;;;4.55;2.30;;;;;;;19.79;57.30;98218.25;4996959;28;20411;-68
2023/10/20 02:20:39;;;;;;;4.38;2.20;;;;;;;19.78;57.25;98222.75;4996236;28;20031;-66
2023/10/20 02:23:04;;;;;;;4.32;2.42;;;;;;;19.78;57.22;98221.94;4996562;28;20037;-66
2023/10/20 02:25:29;;;;;;;4.78;2.58;;;;;;;19.78;57.42;98221.94;4996665;28;20046;-67
2023/10/20 02:27:55;;;;;;;4.50;2.08;;;;;;;19.78;57.18;98209.53;4995714;28;20031;-65
2023/10/20 02:30:21;;;;;;;4.30;2.60;;;;;;;19.78;57.40;98204.25;4997052;28;20044;-68
2023/10/20 02:32:46;;;;;;;5.50;2.80;;;;;;;19.75;57.36;98194.84;4996082;28;20121;-64
2023/10/20 02:35:11;;;;;;;4.13;2.30;;;;;;;19.77;57.33;98194.69;4996919;28;20030;-66
2023/10/20 02:37:37;;;;;;;3.95;2.38;;;;;;;19.77;57.35;98180.66;4996160;28;20462;-66
2023/10/20 02:40:04;;;;;;;8.23;3.28;;;;;;;19.79;57.34;98175.97;4996177;28;20026;-64
2023/10/20 02:42:31;;;;;;;4.47;2.50;;;;;;;19.77;57.38;98172.72;4995359;28;20121;-66
2023/10/20 02:44:56;;;;;;;4.68;2.40;;;;;;;19.76;57.30;98174.56;4995907;28;20113;-64
2023/10/20 02:47:21;;;;;;;4.75;2.33;;;;;;;19.75;57.48;98170.25;4996220;28;20122;-64
2023/10/20 02:49:47;;;;;;;4.17;2.40;;;;;;;19.75;57.35;98159.69;4995540;28;20037;-66
2023/10/20 02:52:13;;;;;;;4.60;2.57;;;;;;;19.74;57.42;98145.66;4996773;28;20268;-65
2023/10/20 02:54:38;;;;;;;4.13;2.50;;;;;;;19.75;57.36;98147.28;4996723;28;20342;-63
2023/10/20 02:57:05;;;;;;;4.32;2.58;;;;;;;19.75;57.48;98147.28;4996752;28;20038;-66
2023/10/20 02:59:31;;;;;;;4.88;2.35;;;;;;;19.74;57.29;98145.66;4995323;28;20087;-62
2023/10/20 03:01:56;;;;;;;3.55;2.17;;;;;;;19.75;57.22;98133.25;4996061;28;20054;-65
2023/10/20 03:04:22;;;;;;;4.25;2.47;;;;;;;19.73;57.48;98128.19;4995882;28;20030;-63
2023/10/20 03:06:47;;;;;;;5.07;2.38;;;;;;;19.73;57.36;98106.22;4995576;28;20096;-66
2023/10/20 03:09:13;;;;;;;5.15;2.67;;;;;;;19.75;57.43;98102.34;4998867;28;20022;-64
2023/10/20 03:11:39;;;;;;;4.30;2.22;;;;;;;19.75;57.53;98102.34;4999940;28;20034;-66
2023/10/20 03:14:04;;;;;;;6.25;2.88;;;;;;;19.73;57.46;98103.59;4999750;28;20125;-67
2023/10/20 03:16:31;;;;;;;4.10;2.33;;;;;;;19.73;57.27;98104.41;4999333;28;20087;-64
2023/10/20 03:18:56;;;;;;;5.28;2.60;;;;;;;19.73;57.37;98112.31;4999722;28;20419;-65
2023/10/20 03:21:23;;;;;;;6.07;2.72;;;;;;;19.74;57.37;98113.13;5000481;28;20040;-67
2023/10/20 03:23:48;;;;;;;4.38;2.50;;;;;;;19.73;57.43;98114.16;4999744;28;20073;-68
2023/10/20 03:26:13;;;;;;;4.38;2.65;;;;;;;19.72;57.29;98104.59;4999365;28;20085;-65
2023/10/20 03:28:39;;;;;;;3.95;2.50;;;;;;;19.73;57.36;98096.47;4999848;28;20375;-67
2023/10/20 03:31:04;;;;;;;4.32;2.33;;;;;;;19.74;57.37;98094.63;4998848;28;20030;-68
2023/10/20 03:33:30;;;;;;;4.95;2.53;;;;;;;19.73;57.46;98087.75;4999374;28;21081;-66
2023/10/20 03:36:05;;;;;;;4.85;2.47;;;;;;;19.70;57.29;98073.09;4999755;28;20445;-66
2023/10/20 03:38:31;;;;;;;5.28;2.80;;;;;;;19.72;57.38;98072.88;5000042;28;20030;-64
2023/10/20 03:41:09;;;;;;;4.35;2.40;;;;;;;19.71;57.49;98072.09;4999111;28;20037;-65
2023/10/20 03:43:35;;;;;;;4.20;2.53;;;;;;;19.72;57.35;98072.88;4999024;28;20080;-65
2023/10/20 03:46:01;;;;;;;4.18;2.38;;;;;;;19.72;57.32;98083.47;4998963;28;20078;-64
2023/10/20 03:48:29;;;;;;;5.20;2.47;;;;;;;19.71;57.44;98073.91;4999599;28;20030;-67
2023/10/20 03:50:55;;;;;;;4.55;2.40;;;;;;;19.71;57.30;98077.38;4999361;28;20084;-65
2023/10/20 03:53:27;;;;;;;4.20;2.45;;;;;;;19.71;57.37;98058.88;4998605;28;20045;-63
2023/10/20 03:56:00;;;;;;;4.30;2.58;;;;;;;19.68;57.27;98043.44;4998894;28;20045;-66
2023/10/20 03:58:32;;;;;;;3.90;2.15;;;;;;;19.72;57.25;98049.13;4999036;28;20467;-67
2023/10/20 04:01:01;;;;;;;4.88;2.70;;;;;;;19.70;57.32;98051.16;4998914;28;20034;-63
2023/10/20 04:03:27;;;;;;;5.38;2.40;;;;;;;19.70;57.21;98051.16;4998980;28;20069;-63
2023/10/20 04:05:53;;;;;;;4.32;2.30;;;;;;;19.69;57.44;98045.06;4999274;28;20070;-66
2023/10/20 04:08:19;;;;;;;4.72;2.63;;;;;;;19.71;57.33;98047.47;4998912;28;20030;-66
2023/10/20 04:10:44;;;;;;;4.22;2.80;;;;;;;19.70;57.26;98032.66;4998585;28;20030;-64
2023/10/20 04:13:12;;;;;;;4.20;2.65;;;;;;;19.71;57.42;98021.06;4999244;28;20038;-63
2023/10/20 04:15:37;;;;;;;5.45;2.75;;;;;;;19.69;57.47;98012.53;4998754;28;20675;-65
2023/10/20 04:18:04;;;;;;;4.93;2.70;;;;;;;19.70;57.27;98019.44;4999071;28;20026;-67
2023/10/20 04:20:29;;;;;;;3.83;2.40;;;;;;;19.69;57.32;98004.59;4998165;28;20088;-64
2023/10/20 04:22:55;;;;;;;4.28;2.50;;;;;;;19.70;57.28;97993.03;4998750;28;20522;-61
2023/10/20 04:25:22;;;;;;;4.40;2.63;;;;;;;19.68;57.34;97989.78;4998172;28;20048;-62
2023/10/20 04:49:58;;;;;;;4.30;2.50;;;;;;;19.68;57.36;97929.00;4998773;28;20056;-62
2023/10/20 04:54:58;;;;;;;4.35;2.50;;;;;;;19.65;57.40;97919.66;4997858;28;20041;-65
2023/10/20 05:02:38;;;;;;;4.90;2.83;;;;;;;19.65;57.40;97903.00;4997875;28;20161;-65
2023/10/20 05:05:10;;;;;;;5.35;2.60;;;;;;;19.65;57.36;97887.16;4997127;28;20529;-65
2023/10/20 05:07:36;;;;;;;6.57;3.08;;;;;;;19.66;57.22;97891.41;4997950;28;20467;-63
2023/10/20 05:10:01;;;;;;;4.72;2.70;;;;;;;19.64;57.27;97882.88;4998249;28;20041;-64
2023/10/20 05:12:28;;;;;;;5.22;2.63;;;;;;;19.63;57.39;97874.16;4998532;28;20038;-66
2023/10/20 05:14:54;;;;;;;5.22;2.90;;;;;;;19.64;57.31;97886.31;4997495;28;20578;-65
2023/10/20 05:17:20;;;;;;;5.03;2.67;;;;;;;19.65;57.42;97887.97;4997834;28;20109;-64
2023/10/20 05:19:48;;;;;;;5.43;2.50;;;;;;;19.64;57.18;97873.13;4995949;28;20578;-62
2023/10/20 05:22:14;;;;;;;5.20;2.78;;;;;;;19.65;57.35;97873.94;4997482;28;20038;-64
2023/10/20 05:24:39;;;;;;;4.63;3.13;;;;;;;19.63;57.18;97866.22;4996243;28;20161;-66
2023/10/20 05:27:04;;;;;;;4.63;2.97;;;;;;;19.64;57.32;97859.09;4997389;28;20061;-64
2023/10/20 05:29:30;;;;;;;5.35;2.80;;;;;;;19.63;57.38;97858.31;4997374;28;20061;-65
2023/10/20 05:31:55;;;;;;;4.53;2.92;;;;;;;19.63;57.25;97863.59;4996352;28;20180;-66
2023/10/20 05:34:20;;;;;;;5.63;2.90;;;;;;;19.63;57.26;97876.78;4997200;28;20030;-66
2023/10/20 05:36:46;;;;;;;4.60;2.58;;;;;;;19.63;57.17;97878.59;4997392;28;20132;-66
2023/10/20 05:39:13;;;;;;;4.73;2.60;;;;;;;19.64;57.18;97878.41;4997468;28;20037;-65
2023/10/20 05:41:39;;;;;;;6.65;2.75;;;;;;;19.65;57.19;97887.16;4997465;28;20267;-65
2023/10/20 05:44:06;;;;;;;4.75;2.90;;;;;;;19.64;57.39;97880.22;4997256;28;20060;-64
2023/10/20 05:46:31;;;;;;;5.07;2.33;;;;;;;19.63;57.29;97868.88;4997178;28;20030;-65
2023/10/20 05:48:56;;;;;;;4.35;2.50;;;;;;;19.64;57.31;97870.47;4996835;28;20056;-66
2023/10/20 05:51:22;;;;;;;4.53;2.20;;;;;;;19.65;57.14;97866.81;4997649;28;20038;-63
2023/10/20 05:53:47;;;;;;;5.15;2.90;;;;;;;19.66;57.30;97867.63;4997568;28;20041;-64
2023/10/20 05:56:12;;;;;;;4.80;2.90;;;;;;;19.66;57.21;97862.34;4997248;28;20030;-67
2023/10/20 05:58:38;;;;;;;6.03;2.80;;;;;;;19.63;57.72;97862.75;4997106;28;20033;-65
2023/10/20 06:01:09;;;;;;;9.20;3.33;;;;;;;19.61;57.69;97847.09;4996935;28;20034;-66
2023/10/20 06:03:34;;;;;;;6.43;2.53;;;;;;;19.63;57.70;97849.53;4996934;28;20034;-66
2023/10/20 06:06:00;;;;;;;6.10;2.97;;;;;;;19.61;57.65;97846.31;4996819;28;20052;-67
2023/10/20 06:08:28;;;;;;;4.82;2.50;;;;;;;19.61;58.11;97841.03;4997373;28;20030;-65
2023/10/20 06:10:58;;;;;;;4.63;2.85;;;;;;;19.61;57.77;97833.09;4996681;28;20034;-65
2023/10/20 06:13:23;;;;;;;4.47;2.80;;;;;;;19.62;57.94;97830.25;4996629;28;20030;-62
2023/10/20 06:15:49;;;;;;;4.30;2.42;;;;;;;19.63;57.93;97849.53;4995920;28;20038;-64
2023/10/20 06:18:14;;;;;;;4.28;2.70;;;;;;;19.61;57.86;97860.31;4996431;28;20544;-67
2023/10/20 06:20:39;;;;;;;5.27;2.70;;;;;;;19.64;57.86;97867.03;4996593;28;20028;-67
2023/10/20 06:23:04;;;;;;;5.07;2.70;;;;;;;19.63;58.33;97855.66;4996914;28;20271;-63
2023/10/20 06:25:35;;;;;;;5.10;2.90;;;;;;;19.60;58.37;97840.22;4996119;28;20078;-65
2023/10/20 06:28:00;;;;;;;4.82;2.80;;;;;;;19.64;58.25;97825.56;4996575;28;20366;-63
2023/10/20 06:30:26;;;;;;;4.60;2.67;;;;;;;19.65;58.11;97835.13;4996469;28;20455;-66
2023/10/20 06:33:16;;;;;;;7.23;2.70;;;;;;;19.67;58.31;97830.44;4996604;28;20264;-62
2023/10/20 06:35:50;;;;;;;4.70;2.83;;;;;;;19.65;58.27;97844.88;4996991;28;20347;-60
2023/10/20 06:38:30;;;;;;;6.88;2.97;;;;;;;19.66;58.48;97849.13;4995160;28;20084;-67
2023/10/20 06:40:56;;;;;;;4.60;2.78;;;;;;;19.65;58.05;97850.97;4996585;28;20866;-65
2023/10/20 06:43:21;;;;;;;6.05;2.85;;;;;;;19.67;58.67;97848.13;4998333;28;21130;-65
2023/10/20 06:45:55;;;;;;;6.28;2.92;;;;;;;19.66;58.75;97838.56;5000772;28;20038;-62
2023/10/20 06:48:20;;;;;;;7.47;2.80;;;;;;;19.66;58.60;97825.34;4997922;28;20113;-62
2023/10/20 06:50:46;;;;;;;5.38;2.83;;;;;;;19.69;59.06;97838.97;4999821;28;20121;-64
2023/10/20 06:53:11;;;;;;;4.90;2.90;;;;;;;19.68;59.19;97825.97;4999443;28;20403;-63
2023/10/20 06:55:41;;;;;;;5.20;3.15;;;;;;;19.61;59.46;97835.75;4999508;28;20030;-62
2023/10/20 06:58:06;;;;;;;5.35;2.80;;;;;;;19.59;59.61;97825.38;4999891;28;20030;-64
2023/10/20 07:00:31;;;;;;;7.40;2.90;;;;;;;19.59;59.63;97833.31;4999180;28;20298;-62
2023/10/20 07:02:57;;;;;;;8.20;3.20;;;;;;;19.54;59.87;97827.84;4999860;28;20744;-65
2023/10/20 07:05:23;;;;;;;5.27;3.00;;;;;;;19.49;60.06;97822.38;5000071;28;20260;-64
2023/10/20 07:07:49;;;;;;;6.95;3.42;;;;;;;19.47;60.18;97827.84;4999835;28;20287;-65
2023/10/20 07:10:17;;;;;;;6.07;2.72;;;;;;;19.49;59.98;97828.44;4999423;28;20111;-64
2023/10/20 07:12:43;;;;;;;6.82;2.88;;;;;;;19.52;59.74;97824.59;4999712;28;20081;-64
2023/10/20 07:15:08;;;;;;;5.75;3.08;;;;;;;19.49;59.98;97819.72;4999621;28;20034;-61
2023/10/20 07:17:34;;;;;;;9.90;3.40;;;;;;;19.49;60.16;97830.28;4999641;28;20165;-62
2023/10/20 07:20:00;;;;;;;6.03;2.95;;;;;;;19.49;60.17;97825.00;4990534;28;20530;-62
2023/10/20 07:22:26;;;;;;;5.30;3.33;;;;;;;19.49;60.16;97815.25;4969979;28;20138;-63
2023/10/20 07:24:52;;;;;;;5.47;3.10;;;;;;;19.51;60.00;97818.47;4987812;28;29350;-63
2023/10/20 07:27:17;;;;;;;5.88;2.97;;;;;;;19.65;59.29;97813.97;4977916;28;20099;-65
2023/10/20 07:29:43;;;;;;;9.52;3.78;;;;;;;19.76;59.07;97812.56;4978788;28;20031;-65
2023/10/20 07:32:10;;;;;;;6.45;2.75;;;;;;;19.80;58.98;97811.13;4979417;28;20066;-63
2023/10/20 07:34:35;;;;;;;12.15;2.95;;;;;;;19.80;59.28;97813.75;4978781;28;20062;-66
2023/10/20 07:37:01;;;;;;;13.57;3.55;;;;;;;19.82;59.36;97811.75;4979859;28;20034;-64
2023/10/20 07:39:26;;;;;;;12.00;3.63;;;;;;;19.89;59.10;97817.00;4980180;28;20034;-60
2023/10/20 07:41:52;;;;;;;14.13;3.45;;;;;;;19.88;59.13;97813.50;4980137;28;20054;-61
2023/10/20 07:44:18;;;;;;;13.55;3.60;;;;;;;19.89;59.11;97803.78;4979918;28;20053;-62
2023/10/20 07:46:43;;;;;;;24.27;4.78;;;;;;;19.86;59.13;97806.84;4979814;28;20038;-64
2023/10/20 07:49:12;;;;;;;15.13;3.47;;;;;;;19.85;59.22;97803.41;4980033;28;20054;-63
2023/10/20 07:51:39;;;;;;;25.27;3.80;;;;;;;19.87;59.42;97797.91;4969712;28;20403;-66
2023/10/20 07:54:05;;;;;;;21.80;3.65;;;;;;;19.84;59.58;97790.38;4978831;28;20030;-62
2023/10/20 07:56:30;;;;;;;25.17;4.57;;;;;;;19.84;59.85;97790.38;4980103;28;20463;-63
2023/10/20 07:58:56;;;;;;;15.90;3.25;;;;;;;19.84;59.60;97779.81;4979038;28;20038;-66
2023/10/20 08:01:23;;;;;;;19.00;3.70;;;;;;;19.86;59.50;97772.47;4978641;28;20046;-64
2023/10/20 08:03:49;;;;;;;24.73;3.97;;;;;;;19.84;59.72;97767.41;4979547;28;20464;-63
2023/10/20 08:06:14;;;;;;;22.65;3.90;;;;;;;19.83;59.73;97771.06;4977035;28;20046;-64
2023/10/20 08:08:40;;;;;;;21.33;4.00;;;;;;;19.85;59.63;97779.59;4979706;28;20546;-64
2023/10/20 08:11:06;;;;;;;16.70;3.40;;;;;;;19.86;59.67;97770.63;4979128;28;20394;-63
2023/10/20 08:13:36;;;;;;;24.23;3.92;;;;;;;19.89;59.88;97775.50;4977541;28;20318;-62
2023/10/20 08:16:03;;;;;;;16.05;3.70;;;;;;;19.91;59.88;97775.31;4978898;28;20077;-65
2023/10/20 08:18:33;;;;;;;24.58;3.72;;;;;;;19.87;59.98;97780.19;4978898;28;20046;-63
2023/10/20 08:21:04;;;;;;;18.70;3.58;;;;;;;19.87;59.97;97784.69;4979056;28;20465;-66
2023/10/20 08:23:29;;;;;;;16.30;2.95;;;;;;;19.85;60.20;97781.41;4976121;28;20042;-63
2023/10/20 08:25:54;;;;;;;16.00;3.95;;;;;;;19.86;60.26;97780.41;4978673;28;20145;-63
2023/10/20 08:28:19;;;;;;;17.48;3.63;;;;;;;19.90;60.03;97781.59;4979125;28;20062;-64
2023/10/20 08:30:45;;;;;;;10.10;3.57;;;;;;;19.89;60.10;97780.78;4978623;28;20460;-64
2023/10/20 08:33:10;;;;;;;13.57;3.30;;;;;;;19.87;60.25;97782.84;4978139;28;20344;-64
2023/10/20 08:35:37;;;;;;;10.52;3.10;;;;;;;19.81;60.60;97782.88;4988397;28;20086;-64
2023/10/20 08:38:03;;;;;;;16.00;3.28;;;;;;;19.74;60.96;97778.41;4975384;28;20628;-65
2023/10/20 08:40:33;;;;;;;11.15;2.83;;;;;;;19.71;60.88;97783.25;4978301;28;20395;-65
2023/10/20 08:43:02;;;;;;;9.70;2.80;;;;;;;19.68;61.09;97773.94;4978444;28;20030;-66
2023/10/20 08:45:31;;;;;;;8.23;3.08;;;;;;;19.67;61.18;97769.66;4978139;28;20061;-62
2023/10/20 08:48:01;;;;;;;14.27;3.20;;;;;;;19.67;61.18;97780.22;4977107;28;20460;-64
2023/10/20 08:50:29;;;;;;;14.13;3.28;;;;;;;19.68;61.21;97771.31;4978035;28;20601;-64
2023/10/20 08:52:57;;;;;;;11.85;3.22;;;;;;;19.67;61.32;97771.50;4978094;28;20043;-64
2023/10/20 08:55:23;;;;;;;11.90;3.58;;;;;;;19.71;61.19;97775.34;4978100;28;20031;-64
2023/10/20 08:57:48;;;;;;;14.73;3.40;;;;;;;19.69;61.08;97767.66;4978287;28;20035;-63
2023/10/20 09:00:20;;;;;;;8.10;2.47;;;;;;;19.74;61.13;97767.00;4979800;28;20314;-65
2023/10/20 09:02:47;;;;;;;14.52;3.30;;;;;;;19.78;61.07;97764.78;4977725;28;20034;-64
2023/10/20 09:05:19;;;;;;;9.55;2.95;;;;;;;19.83;60.93;97768.41;4977541;28;20038;-63
2023/10/20 09:07:54;;;;;;;12.00;3.08;;;;;;;19.83;60.91;97765.78;4977035;28;20499;-63
2023/10/20 09:10:19;;;;;;;10.93;2.90;;;;;;;19.87;60.33;97761.69;4977669;28;20042;-64
2023/10/20 09:12:45;;;;;;;8.73;2.65;;;;;;;19.94;60.28;97773.03;4977632;28;20047;-66
2023/10/20 09:15:11;;;;;;;8.00;2.88;;;;;;;19.91;60.59;97770.00;4977335;28;20395;-63
2023/10/20 09:17:36;;;;;;;8.18;2.40;;;;;;;19.88;60.82;97768.59;4977816;28;20526;-63
2023/10/20 09:20:14;;;;;;;10.05;3.10;;;;;;;19.86;60.77;97768.00;4977798;28;20060;-64
2023/10/20 09:22:40;;;;;;;9.18;2.85;;;;;;;19.87;60.64;97763.53;4976039;28;20069;-64
2023/10/20 09:25:10;;;;;;;10.50;2.45;;;;;;;19.86;60.73;97749.50;4977272;28;20038;-65
2023/10/20 09:27:37;;;;;;;14.30;3.00;;;;;;;19.88;60.92;97747.44;4977165;28;20108;-65
2023/10/20 09:30:08;;;;;;;8.38;3.03;;;;;;;19.89;61.02;97745.63;4977555;28;20030;-65
2023/10/20 09:32:34;;;;;;;8.05;2.75;;;;;;;19.87;61.22;97752.97;4977602;28;20034;-64
2023/10/20 09:34:59;;;;;;;11.15;2.55;;;;;;;19.84;61.48;97751.56;4976614;28;20038;-65
2023/10/20 09:37:28;;;;;;;7.82;2.65;;;;;;;19.79;61.44;97754.03;4976895;28;20034;-65
2023/10/20 09:39:59;;;;;;;7.18;2.40;;;;;;;19.81;61.41;97764.38;4977421;28;20037;-65
2023/10/20 09:42:25;;;;;;;18.50;3.15;;;;;;;19.82;61.35;97756.25;4977528;28;20707;-65
2023/10/20 09:45:06;;;;;;;17.00;3.58;;;;;;;19.89;61.06;97757.00;4976585;28;20048;-63
2023/10/20 09:47:35;;;;;;;12.38;2.67;;;;;;;19.93;61.12;97750.28;4977455;28;20046;-63
2023/10/20 09:50:01;;;;;;;16.50;2.60;;;;;;;19.93;61.17;97762.69;4977809;28;20043;-64
2023/10/20 09:52:28;;;;;;;15.00;2.38;;;;;;;19.97;60.88;97753.31;4977764;28;20037;-65
2023/10/20 09:54:54;;;;;;;12.48;3.20;;;;;;;19.98;60.91;97751.47;4977216;28;20289;-67
2023/10/20 09:57:20;;;;;;;18.75;2.97;;;;;;;19.98;61.09;97754.13;4976913;28;20089;-64
2023/10/20 09:59:51;;;;;;;26.88;3.03;;;;;;;20.00;60.90;97749.44;4977467;28;20537;-64
2023/10/20 10:02:26;;;;;;;14.70;2.67;;;;;;;20.05;60.86;97757.56;4977520;28;20042;-64
2023/10/20 10:04:51;;;;;;;11.55;2.60;;;;;;;20.01;60.92;97749.25;4977084;28;20601;-64
2023/10/20 10:07:27;;;;;;;16.25;2.80;;;;;;;19.99;61.41;97750.47;4977148;28;20107;-63
2023/10/20 10:09:54;;;;;;;14.88;2.80;;;;;;;20.02;61.02;97750.03;4974891;28;20038;-65
2023/10/20 10:12:23;;;;;;;14.27;2.60;;;;;;;19.99;61.15;97738.03;4976093;28;20097;-65
2023/10/20 10:15:14;;;;;;;16.55;3.08;;;;;;;19.96;61.15;97748.25;4975744;28;20125;-64
2023/10/20 10:17:47;;;;;;;16.70;2.70;;;;;;;19.95;61.07;97731.59;4976213;28;20031;-63
2023/10/20 10:20:23;;;;;;;21.52;2.75;;;;;;;20.01;60.93;97743.94;4976367;28;20045;-65
2023/10/20 10:23:04;;;;;;;19.73;3.50;;;;;;;20.01;61.04;97738.66;4976219;28;20041;-65
2023/10/20 10:25:41;;;;;;;20.77;8.02;;;;;;;20.02;61.17;97732.34;4976739;28;20066;-64
2023/10/20 10:28:19;;;;;;;26.40;16.05;;;;;;;20.05;61.24;97736.41;4976233;28;20141;-64
2023/10/20 10:30:45;;;;;;;40.42;23.58;;;;;;;20.10;60.98;97732.09;4976540;28;20037;-64
2023/10/20 10:33:12;;;;;;;53.30;34.25;;;;;;;20.13;61.03;97724.78;4976903;28;20058;-64
2023/10/20 10:35:38;;;;;;;52.08;36.58;;;;;;;20.12;61.43;97729.22;4976815;28;20034;-64
2023/10/20 10:38:06;;;;;;;56.63;42.42;;;;;;;20.11;61.57;97722.34;4976686;28;20030;-63
2023/10/20 10:40:32;;;;;;;52.13;42.15;;;;;;;20.10;61.56;97720.72;4975906;28;20387;-63
2023/10/20 10:42:57;;;;;;;56.47;46.63;;;;;;;20.11;61.49;97717.06;4976470;28;20044;-64
2023/10/20 10:45:27;;;;;;;71.10;51.42;;;;;;;20.12;61.78;97710.72;4967386;28;20046;-63
2023/10/20 10:48:09;;;;;;;65.32;48.67;;;;;;;20.11;62.02;97709.91;4975930;28;20035;-64
2023/10/20 10:50:42;;;;;;;71.13;50.13;;;;;;;20.12;62.22;97697.50;4976369;28;20108;-63
2023/10/20 10:53:10;;;;;;;63.88;45.33;;;;;;;20.13;62.09;97693.03;4976829;28;20481;-63
2023/10/20 10:55:36;;;;;;;68.68;49.70;;;;;;;20.11;62.24;97690.63;4976689;28;20101;-65
2023/10/20 10:58:02;;;;;;;73.93;46.00;;;;;;;20.13;61.41;97685.13;4976451;28;20150;-64
2023/10/20 11:00:28;;;;;;;77.93;47.80;;;;;;;20.20;61.18;97680.56;4975168;28;20034;-64
2023/10/20 11:02:56;;;;;;;62.08;45.53;;;;;;;20.23;61.19;97673.03;4977740;28;20026;-64
2023/10/20 11:05:21;;;;;;;61.50;42.72;;;;;;;20.25;60.96;97673.63;4977138;28;20026;-65
2023/10/20 11:08:10;;;;;;;56.55;40.90;;;;;;;20.25;61.00;97663.06;4974869;28;20045;-64
2023/10/20 11:10:37;;;;;;;51.35;39.00;;;;;;;20.24;60.56;97657.97;4977224;28;20479;-65
2023/10/20 11:13:08;;;;;;;53.58;38.72;;;;;;;20.25;60.84;97671.00;4976649;28;20036;-63
2023/10/20 11:15:35;;;;;;;56.95;37.72;;;;;;;20.24;60.84;97668.56;4976442;28;20109;-65
2023/10/20 11:18:02;;;;;;;51.08;36.78;;;;;;;20.23;60.74;97651.06;4976551;28;20034;-64
2023/10/20 11:20:28;;;;;;;49.95;36.33;;;;;;;20.22;60.58;97641.50;4976876;28;20042;-63
2023/10/20 11:22:56;;;;;;;50.53;35.58;;;;;;;20.20;61.00;97633.81;4976858;28;20121;-64
2023/10/20 11:25:23;;;;;;;51.88;34.15;;;;;;;20.19;60.83;97640.13;4976706;28;20055;-64
2023/10/20 11:27:55;;;;;;;49.33;34.55;;;;;;;20.19;60.87;97639.31;4976286;28;20177;-66
2023/10/20 11:30:31;;;;;;;49.10;34.65;;;;;;;20.17;60.75;97639.53;4979824;28;20037;-65
2023/10/20 11:32:56;;;;;;;48.08;32.78;;;;;;;20.14;60.75;97633.84;4980469;28;20038;-63
2023/10/20 11:35:26;;;;;;;49.83;32.58;;;;;;;20.15;60.98;97630.19;4979431;28;20045;-63
2023/10/20 11:37:53;;;;;;;48.85;32.78;;;;;;;20.17;60.77;97636.06;4980023;28;20471;-63
2023/10/20 11:40:21;;;;;;;41.92;31.02;;;;;;;20.15;60.79;97623.06;4979411;28;20030;-64
2023/10/20 11:42:48;;;;;;;38.65;30.02;;;;;;;20.15;60.71;97622.25;4979972;28;20045;-63
2023/10/20 11:45:13;;;;;;;37.50;27.75;;;;;;;20.15;60.71;97625.69;4980116;28;20065;-62
2023/10/20 11:47:39;;;;;;;39.47;28.40;;;;;;;20.14;60.75;97617.97;4980232;28;20078;-64
2023/10/20 11:50:08;;;;;;;37.22;27.17;;;;;;;20.14;60.50;97618.81;4980444;28;20037;-63
2023/10/20 11:52:37;;;;;;;39.38;26.83;;;;;;;20.14;60.78;97607.41;4979200;28;20034;-63
2023/10/20 11:55:03;;;;;;;37.95;25.60;;;;;;;20.11;60.59;97604.19;4980082;28;20069;-64
2023/10/20 11:57:29;;;;;;;40.13;27.58;;;;;;;20.10;60.94;97610.47;4979442;28;20033;-66
2023/10/20 11:59:54;;;;;;;33.97;24.80;;;;;;;20.05;61.27;97609.53;4979467;28;20467;-63